Time;durP1;ratioP1;P1;durP2;ratioP2;P2;SDS_P1;SDS_P2;PMS_P1;PMS_P2;Temp;Humidity;BMP_temperature;BMP_pressure;BME280_temperature;BME280_humidity;BME280_pressure;Samples;Min_cycle;Max_cycle;Signal;HPM_P1;HPM_P2
2023/09/04 00:02:19;;;;;;;;;;;20.90;68.40;;;;;;10238523;28;93469;-52
2023/09/04 00:07:20;;;;;;;;;;;20.90;68.40;;;;;;10240749;28;95228;-52
2023/09/04 00:12:22;;;;;;;;;;;20.90;68.40;;;;;;10240051;28;93898;-53
2023/09/04 00:17:24;;;;;;;;;;;20.90;68.20;;;;;;10239545;28;93096;-53
2023/09/04 00:22:27;;;;;;;;;;;20.90;68.20;;;;;;10240218;28;94237;-51
2023/09/04 00:27:29;;;;;;;;;;;20.90;68.20;;;;;;10241190;28;92791;-52
2023/09/04 00:32:31;;;;;;;;;;;20.90;68.20;;;;;;10239509;28;93761;-51
2023/09/04 00:37:32;;;;;;;;;;;20.90;68.20;;;;;;10232710;28;94561;-52
2023/09/04 00:42:34;;;;;;;;;;;20.90;68.20;;;;;;10237176;28;97010;-48
2023/09/04 00:47:36;;;;;;;;;;;20.90;68.20;;;;;;10238694;28;94024;-53
2023/09/04 00:52:38;;;;;;;;;;;20.90;68.20;;;;;;10230139;28;94459;-49
2023/09/04 00:57:41;;;;;;;;;;;20.80;68.10;;;;;;10237965;28;93836;-52
2023/09/04 01:02:43;;;;;;;;;;;20.80;68.10;;;;;;10236713;28;92990;-51
2023/09/04 01:07:46;;;;;;;;;;;20.80;68.10;;;;;;10242128;28;94651;-51
2023/09/04 01:12:47;;;;;;;;;;;20.80;68.00;;;;;;10250211;28;94443;-49
2023/09/04 01:17:50;;;;;;;;;;;20.80;68.10;;;;;;10238084;28;94047;-52
2023/09/04 01:22:51;;;;;;;;;;;20.80;68.00;;;;;;10239900;28;94083;-51
2023/09/04 01:27:57;;;;;;;;;;;20.80;68.00;;;;;;10252472;28;94701;-50
2023/09/04 01:33:01;;;;;;;;;;;20.80;68.10;;;;;;10234359;28;97099;-51
2023/09/04 01:38:03;;;;;;;;;;;20.80;68.00;;;;;;10235749;28;94497;-52
2023/09/04 01:43:05;;;;;;;;;;;20.80;68.00;;;;;;10237332;28;93492;-53
2023/09/04 01:48:07;;;;;;;;;;;20.70;67.90;;;;;;10236314;28;94400;-51
2023/09/04 01:53:08;;;;;;;;;;;20.70;67.90;;;;;;10236844;28;94546;-53
2023/09/04 01:58:10;;;;;;;;;;;20.70;67.90;;;;;;10237261;28;94389;-53
2023/09/04 02:03:14;;;;;;;;;;;20.70;67.90;;;;;;10235756;28;93250;-53
2023/09/04 02:08:16;;;;;;;;;;;20.70;67.90;;;;;;10235437;28;94545;-53
2023/09/04 02:13:18;;;;;;;;;;;20.70;67.80;;;;;;10237068;28;93496;-52
2023/09/04 02:18:19;;;;;;;;;;;20.70;67.80;;;;;;10235522;28;94424;-53
2023/09/04 02:23:21;;;;;;;;;;;20.70;67.80;;;;;;10232771;28;96291;-53
2023/09/04 02:28:24;;;;;;;;;;;20.70;67.80;;;;;;10236156;28;94823;-53
2023/09/04 02:33:26;;;;;;;;;;;20.70;67.80;;;;;;10226783;28;93708;-52
2023/09/04 02:38:27;;;;;;;;;;;20.70;67.80;;;;;;10232826;28;93624;-52
2023/09/04 02:43:29;;;;;;;;;;;20.70;67.80;;;;;;10242416;28;93341;-52
2023/09/04 02:48:31;;;;;;;;;;;20.60;67.70;;;;;;10234614;28;93918;-51
2023/09/04 02:53:33;;;;;;;;;;;20.60;67.70;;;;;;10228790;28;94797;-53
2023/09/04 02:58:34;;;;;;;;;;;20.60;67.60;;;;;;10254690;28;93713;-52
2023/09/04 03:03:36;;;;;;;;;;;20.70;67.70;;;;;;10226452;28;94399;-48
2023/09/04 03:08:38;;;;;;;;;;;20.60;67.60;;;;;;10232337;28;94511;-50
2023/09/04 03:13:40;;;;;;;;;;;20.60;67.60;;;;;;10232780;28;96908;-52
2023/09/04 03:18:44;;;;;;;;;;;20.60;67.60;;;;;;10245958;28;93810;-53
2023/09/04 03:23:47;;;;;;;;;;;20.60;67.60;;;;;;10235202;28;93404;-49
2023/09/04 03:28:49;;;;;;;;;;;20.60;67.60;;;;;;10233867;28;94080;-50
2023/09/04 03:33:51;;;;;;;;;;;20.60;67.60;;;;;;10234481;28;94495;-51
2023/09/04 03:38:52;;;;;;;;;;;20.60;67.60;;;;;;10233873;28;93560;-53
2023/09/04 03:43:55;;;;;;;;;;;20.60;67.60;;;;;;10233878;28;94028;-51
2023/09/04 03:48:57;;;;;;;;;;;20.60;67.50;;;;;;10243269;28;93699;-53
2023/09/04 03:54:01;;;;;;;;;;;20.60;67.50;;;;;;10233697;28;93568;-54
2023/09/04 03:59:04;;;;;;;;;;;20.60;67.40;;;;;;10212372;28;94528;-52
2023/09/04 04:04:08;;;;;;;;;;;20.60;67.50;;;;;;10228107;28;95830;-53
2023/09/04 04:09:11;;;;;;;;;;;20.60;67.50;;;;;;10232819;28;94544;-52
2023/09/04 04:14:16;;;;;;;;;;;20.60;67.40;;;;;;10242547;28;93686;-51
2023/09/04 04:19:19;;;;;;;;;;;20.60;67.40;;;;;;10223975;28;94392;-52
2023/09/04 04:24:21;;;;;;;;;;;20.60;67.30;;;;;;10228725;28;94418;-52
2023/09/04 04:29:22;;;;;;;;;;;20.60;67.20;;;;;;10234212;28;93793;-52
2023/09/04 04:34:24;;;;;;;;;;;20.60;67.20;;;;;;10236656;28;94369;-52
2023/09/04 04:39:26;;;;;;;;;;;20.60;67.20;;;;;;10233185;28;94061;-51
2023/09/04 04:44:28;;;;;;;;;;;20.60;67.10;;;;;;10237031;28;96034;-54
2023/09/04 04:49:29;;;;;;;;;;;20.60;67.10;;;;;;10692662;22;95668;-66
2023/09/04 04:54:32;;;;;;;;;;;20.60;67.00;;;;;;10183723;28;96063;-66
2023/09/04 04:59:35;;;;;;;;;;;20.60;67.00;;;;;;10199461;28;94406;-66
2023/09/04 05:04:44;;;;;;;;;;;20.60;67.00;;;;;;10197275;28;94479;-65
2023/09/04 05:09:46;;;;;;;;;;;20.60;67.00;;;;;;10195172;28;92883;-67
2023/09/04 05:14:47;;;;;;;;;;;20.60;66.80;;;;;;10212239;28;95938;-66
2023/09/04 05:19:49;;;;;;;;;;;20.60;66.30;;;;;;10199583;28;94471;-66
2023/09/04 05:24:51;;;;;;;;;;;20.60;66.00;;;;;;10199950;28;93568;-65
2023/09/04 05:29:54;;;;;;;;;;;20.70;66.50;;;;;;10191981;28;93278;-65
2023/09/04 05:34:56;;;;;;;;;;;20.70;66.70;;;;;;10197133;28;93954;-66
2023/09/04 05:39:58;;;;;;;;;;;20.70;66.80;;;;;;10197253;28;94033;-65
2023/09/04 05:45:01;;;;;;;;;;;20.60;67.40;;;;;;10187925;28;96745;-65
2023/09/04 05:50:03;;;;;;;;;;;20.70;66.40;;;;;;10188710;28;93468;-65
2023/09/04 05:55:04;;;;;;;;;;;20.60;66.40;;;;;;10192808;28;94079;-65
2023/09/04 06:00:07;;;;;;;;;;;20.60;66.50;;;;;;10197516;28;94134;-66
2023/09/04 06:05:09;;;;;;;;;;;20.60;66.50;;;;;;10205199;28;94114;-66
2023/09/04 06:10:13;;;;;;;;;;;20.60;66.50;;;;;;10197578;28;96257;-67
2023/09/04 06:15:14;;;;;;;;;;;20.60;66.60;;;;;;10228428;28;93519;-66
2023/09/04 06:20:17;;;;;;;;;;;20.60;66.50;;;;;;10184725;28;94211;-66
2023/09/04 06:25:18;;;;;;;;;;;20.60;66.60;;;;;;10212076;28;93352;-65
2023/09/04 06:30:20;;;;;;;;;;;20.60;66.70;;;;;;10185891;28;93837;-66
2023/09/04 06:35:22;;;;;;;;;;;20.60;66.70;;;;;;10194234;28;96979;-67
2023/09/04 06:40:24;;;;;;;;;;;20.60;66.70;;;;;;10196116;28;93489;-67
2023/09/04 06:45:25;;;;;;;;;;;20.60;66.70;;;;;;10197143;28;93481;-65
2023/09/04 06:50:27;;;;;;;;;;;20.60;66.70;;;;;;10196910;28;94734;-65
2023/09/04 06:55:29;;;;;;;;;;;20.50;66.70;;;;;;10195369;28;93460;-65
2023/09/04 07:00:31;;;;;;;;;;;20.50;66.70;;;;;;10195479;28;93302;-65
2023/09/04 07:05:32;;;;;;;;;;;20.60;66.80;;;;;;10181239;28;95141;-65
2023/09/04 07:10:35;;;;;;;;;;;20.50;66.80;;;;;;10183635;28;93817;-65
2023/09/04 07:15:37;;;;;;;;;;;20.60;66.90;;;;;;10193584;28;93283;-64
2023/09/04 07:20:39;;;;;;;;;;;20.50;66.80;;;;;;10195475;28;93448;-65
2023/09/04 07:25:42;;;;;;;;;;;20.50;66.80;;;;;;10192329;28;95865;-65
2023/09/04 07:30:44;;;;;;;;;;;20.50;66.90;;;;;;10224593;28;93369;-65
2023/09/04 07:35:53;;;;;;;;;;;20.50;66.90;;;;;;10206052;28;93535;-65
2023/09/04 07:40:58;;;;;;;;;;;20.50;67.00;;;;;;10226327;28;94525;-64
2023/09/04 07:46:01;;;;;;;;;;;20.60;67.00;;;;;;10194545;28;94492;-65
2023/09/04 07:51:04;;;;;;;;;;;20.50;67.10;;;;;;10193596;28;93993;-65
2023/09/04 07:56:23;;;;;;;;;;;20.50;67.10;;;;;;10184616;28;94506;-65
2023/09/04 08:01:30;;;;;;;;;;;20.50;67.10;;;;;;10194814;28;92353;-65
2023/09/04 08:06:32;;;;;;;;;;;20.50;67.20;;;;;;10202343;28;94773;-65
2023/09/04 08:11:34;;;;;;;;;;;20.50;67.10;;;;;;10201758;28;94295;-64
2023/09/04 08:16:36;;;;;;;;;;;20.50;67.10;;;;;;10199266;28;96819;-65
2023/09/04 08:21:39;;;;;;;;;;;20.50;67.30;;;;;;10200914;28;94666;-65
2023/09/04 08:26:42;;;;;;;;;;;20.50;67.30;;;;;;10200445;28;94266;-66
2023/09/04 08:31:44;;;;;;;;;;;20.50;67.30;;;;;;10200438;28;93309;-66
2023/09/04 08:36:46;;;;;;;;;;;20.50;67.20;;;;;;10189914;28;93658;-65
2023/09/04 08:41:48;;;;;;;;;;;20.60;67.40;;;;;;10191822;28;94159;-65
2023/09/04 08:46:50;;;;;;;;;;;20.60;67.40;;;;;;10199602;28;94441;-65
2023/09/04 08:51:53;;;;;;;;;;;20.60;67.40;;;;;;10202831;28;93033;-65
2023/09/04 08:56:57;;;;;;;;;;;20.60;67.60;;;;;;10197282;28;94823;-65
2023/09/04 09:02:03;;;;;;;;;;;20.60;67.60;;;;;;10197731;28;93853;-65
2023/09/04 09:07:05;;;;;;;;;;;20.60;67.70;;;;;;10185977;28;97174;-65
2023/09/04 09:12:07;;;;;;;;;;;20.60;67.60;;;;;;10199010;28;93911;-65
2023/09/04 09:17:15;;;;;;;;;;;20.60;67.50;;;;;;10187015;28;93592;-65
2023/09/04 09:22:19;;;;;;;;;;;20.60;67.40;;;;;;10198188;28;94436;-65
2023/09/04 09:27:21;;;;;;;;;;;20.70;67.40;;;;;;10197176;28;93141;-65
2023/09/04 09:32:28;;;;;;;;;;;20.70;67.40;;;;;;10198836;28;94354;-66
2023/09/04 09:37:30;;;;;;;;;;;20.80;67.30;;;;;;10198861;28;93635;-66
2023/09/04 09:42:32;;;;;;;;;;;20.90;67.10;;;;;;10180700;28;92720;-66
2023/09/04 09:47:34;;;;;;;;;;;21.00;66.80;;;;;;10195807;28;94433;-67
2023/09/04 09:52:37;;;;;;;;;;;21.10;66.70;;;;;;10195546;28;93524;-66
2023/09/04 09:57:39;;;;;;;;;;;21.20;66.40;;;;;;10194482;28;95978;-67
2023/09/04 10:02:42;;;;;;;;;;;21.30;66.10;;;;;;10195954;28;93331;-68
2023/09/04 10:07:47;;;;;;;;;;;21.40;65.90;;;;;;10198015;28;94097;-66
2023/09/04 10:12:50;;;;;;;;;;;21.50;65.80;;;;;;10196824;28;93601;-68
2023/09/04 10:17:58;;;;;;;;;;;21.60;65.60;;;;;;10195676;28;114011;-66
2023/09/04 10:23:05;;;;;;;;;;;21.60;65.40;;;;;;10196800;28;94402;-67
2023/09/04 10:28:11;;;;;;;;;;;21.70;65.30;;;;;;10196502;28;93089;-66
2023/09/04 10:33:14;;;;;;;;;;;21.70;65.30;;;;;;10172285;28;93692;-66
2023/09/04 10:38:16;;;;;;;;;;;21.80;65.20;;;;;;10196640;28;94372;-68
2023/09/04 10:43:18;;;;;;;;;;;21.80;65.10;;;;;;10196583;28;93597;-66
2023/09/04 10:48:39;;;;;;;;;;;21.80;65.00;;;;;;10193791;28;96785;-66
2023/09/04 10:53:43;;;;;;;;;;;21.80;65.00;;;;;;10196187;28;93781;-67
2023/09/04 10:59:02;;;;;;;;;;;21.80;65.00;;;;;;10194984;28;94110;-68
2023/09/04 11:04:05;;;;;;;;;;;21.80;65.10;;;;;;10194872;28;94013;-66
2023/09/04 11:09:12;;;;;;;;;;;21.80;65.00;;;;;;10195120;28;93881;-67
2023/09/04 11:14:14;;;;;;;;;;;21.80;65.10;;;;;;10209623;28;94406;-66
2023/09/04 11:19:16;;;;;;;;;;;21.70;65.20;;;;;;10208651;28;94994;-68
2023/09/04 11:24:19;;;;;;;;;;;21.70;65.30;;;;;;10196130;28;93051;-66
2023/09/04 11:29:21;;;;;;;;;;;21.70;65.30;;;;;;10195012;28;96644;-66
2023/09/04 11:34:22;;;;;;;;;;;21.70;65.40;;;;;;10196942;28;94357;-67
2023/09/04 11:39:24;;;;;;;;;;;21.70;65.50;;;;;;10192861;28;96800;-66
2023/09/04 11:44:26;;;;;;;;;;;21.70;65.60;;;;;;10233400;28;93468;-66
2023/09/04 11:49:28;;;;;;;;;;;21.60;65.70;;;;;;10198592;28;93759;-66
2023/09/04 11:54:33;;;;;;;;;;;21.60;65.70;;;;;;10200435;28;93376;-68
2023/09/04 11:59:35;;;;;;;;;;;21.60;65.80;;;;;;10203362;28;94492;-66
2023/09/04 12:04:37;;;;;;;;;;;21.60;65.90;;;;;;10201682;28;93518;-66
2023/09/04 12:09:42;;;;;;;;;;;21.60;66.10;;;;;;10202079;28;93486;-66
2023/09/04 12:14:44;;;;;;;;;;;21.50;66.00;;;;;;10232560;28;92610;-66
2023/09/04 12:19:48;;;;;;;;;;;21.50;66.10;;;;;;10189071;28;94495;-66
2023/09/04 12:24:58;;;;;;;;;;;21.50;66.20;;;;;;10200121;28;94588;-66
2023/09/04 12:30:00;;;;;;;;;;;21.50;66.30;;;;;;10186052;28;96769;-66
2023/09/04 12:35:08;;;;;;;;;;;21.50;66.30;;;;;;10200739;28;93389;-66
2023/09/04 12:40:11;;;;;;;;;;;21.50;66.40;;;;;;10187923;28;93436;-67
2023/09/04 12:45:14;;;;;;;;;;;21.50;66.50;;;;;;10205830;28;93799;-66
2023/09/04 12:50:15;;;;;;;;;;;21.50;66.50;;;;;;10199825;28;94571;-65
2023/09/04 12:55:17;;;;;;;;;;;21.50;66.60;;;;;;10200102;28;93432;-66
2023/09/04 13:00:19;;;;;;;;;;;21.50;66.60;;;;;;10199443;28;94270;-66
2023/09/04 13:05:23;;;;;;;;;;;21.40;66.50;;;;;;10199781;28;92752;-66
2023/09/04 13:10:24;;;;;;;;;;;21.40;66.60;;;;;;10228351;28;94659;-67
2023/09/04 13:15:27;;;;;;;;;;;21.50;66.60;;;;;;10198975;28;93478;-66
2023/09/04 13:20:30;;;;;;;;;;;21.50;66.70;;;;;;10194443;28;95869;-67
2023/09/04 13:25:31;;;;;;;;;;;21.50;66.60;;;;;;10198950;28;93374;-67
2023/09/04 13:30:33;;;;;;;;;;;21.50;66.70;;;;;;10194797;28;93442;-67
2023/09/04 13:35:35;;;;;;;;;;;21.50;66.70;;;;;;10198611;28;94390;-67
2023/09/04 13:40:37;;;;;;;;;;;21.50;66.80;;;;;;10199152;28;93384;-66
2023/09/04 13:45:39;;;;;;;;;;;21.50;66.70;;;;;;10196594;28;94414;-66
2023/09/04 13:50:42;;;;;;;;;;;21.50;66.80;;;;;;10185436;28;94055;-67
2023/09/04 13:55:46;;;;;;;;;;;21.50;66.80;;;;;;10192209;28;93035;-66
2023/09/04 14:00:48;;;;;;;;;;;21.50;66.80;;;;;;10183533;28;94422;-66
2023/09/04 14:05:50;;;;;;;;;;;21.50;66.80;;;;;;10202604;28;94421;-66
2023/09/04 14:10:53;;;;;;;;;;;21.50;66.80;;;;;;10224878;28;96910;-65
2023/09/04 14:15:56;;;;;;;;;;;21.50;66.80;;;;;;10197533;28;93383;-66
2023/09/04 14:21:01;;;;;;;;;;;21.50;66.90;;;;;;10194665;28;94658;-66
2023/09/04 14:26:05;;;;;;;;;;;21.50;66.90;;;;;;10199038;28;94799;-67
2023/09/04 14:31:12;;;;;;;;;;;21.50;67.00;;;;;;10195663;28;92879;-66
2023/09/04 14:36:14;;;;;;;;;;;21.50;66.90;;;;;;10195843;28;94621;-67
2023/09/04 14:41:22;;;;;;;;;;;21.50;66.90;;;;;;10197295;28;94385;-67
2023/09/04 14:46:24;;;;;;;;;;;21.50;67.00;;;;;;10196582;28;93679;-67
2023/09/04 14:51:27;;;;;;;;;;;21.60;67.00;;;;;;10196983;28;93564;-66
2023/09/04 14:56:29;;;;;;;;;;;21.60;67.00;;;;;;10195832;28;93496;-66
2023/09/04 15:01:31;;;;;;;;;;;21.60;67.00;;;;;;10194585;28;95889;-66
2023/09/04 15:06:33;;;;;;;;;;;21.60;67.00;;;;;;10196348;28;93857;-66
2023/09/04 15:11:34;;;;;;;;;;;21.60;67.00;;;;;;10195394;28;93385;-67
2023/09/04 15:16:37;;;;;;;;;;;21.60;67.00;;;;;;10195552;28;93775;-63
2023/09/04 15:21:39;;;;;;;;;;;21.60;67.00;;;;;;10196174;28;94311;-67
2023/09/04 15:26:42;;;;;;;;;;;21.60;66.90;;;;;;10194968;28;95479;-66
2023/09/04 15:31:44;;;;;;;;;;;21.60;67.00;;;;;;10183626;28;93489;-66
2023/09/04 15:36:46;;;;;;;;;;;21.60;67.00;;;;;;10197009;28;92961;-66
2023/09/04 15:41:48;;;;;;;;;;;21.60;66.90;;;;;;10210132;28;94561;-65
2023/09/04 15:46:49;;;;;;;;;;;21.60;66.90;;;;;;10196641;28;94397;-66
2023/09/04 15:51:51;;;;;;;;;;;21.60;66.90;;;;;;10193864;28;96945;-67
2023/09/04 15:56:53;;;;;;;;;;;21.60;66.90;;;;;;10206196;28;94921;-67
2023/09/04 16:01:55;;;;;;;;;;;21.70;67.00;;;;;;10194086;28;93240;-65
2023/09/04 16:06:57;;;;;;;;;;;21.60;67.00;;;;;;10194708;28;93589;-67
2023/09/04 16:11:59;;;;;;;;;;;21.60;67.00;;;;;;10192887;28;94238;-67
2023/09/04 16:17:01;;;;;;;;;;;21.70;67.10;;;;;;10179614;28;94554;-67
2023/09/04 16:22:03;;;;;;;;;;;21.70;67.00;;;;;;10192565;28;94481;-66
2023/09/04 16:27:05;;;;;;;;;;;21.70;67.00;;;;;;10211038;28;92978;-67
2023/09/04 16:32:08;;;;;;;;;;;21.70;67.00;;;;;;10199830;28;93262;-66
2023/09/04 16:37:09;;;;;;;;;;;21.70;67.00;;;;;;10200515;28;94354;-67
2023/09/04 16:42:13;;;;;;;;;;;21.70;67.00;;;;;;10196733;28;97052;-65
2023/09/04 16:47:15;;;;;;;;;;;21.70;67.00;;;;;;10199768;28;93719;-67
2023/09/04 16:52:16;;;;;;;;;;;21.70;67.00;;;;;;10197035;28;93433;-66
2023/09/04 16:57:19;;;;;;;;;;;21.70;66.90;;;;;;10197959;28;93786;-67
2023/09/04 17:02:20;;;;;;;;;;;21.70;66.90;;;;;;10196668;28;93767;-66
2023/09/04 17:07:22;;;;;;;;;;;21.70;67.00;;;;;;10201672;28;94533;-66
2023/09/04 17:12:24;;;;;;;;;;;21.70;66.90;;;;;;10198287;28;94260;-67
2023/09/04 17:17:28;;;;;;;;;;;21.70;66.90;;;;;;10187752;28;92940;-66
2023/09/04 17:22:30;;;;;;;;;;;21.60;66.80;;;;;;10187549;28;93174;-67
2023/09/04 17:27:32;;;;;;;;;;;21.60;66.90;;;;;;10198958;28;94441;-66
2023/09/04 17:32:33;;;;;;;;;;;21.60;67.00;;;;;;10202708;28;96784;-65
2023/09/04 17:37:35;;;;;;;;;;;21.70;68.30;;;;;;10203181;28;92916;-66
2023/09/04 17:42:37;;;;;;;;;;;21.90;68.30;;;;;;10211462;28;94066;-64
2023/09/04 17:47:39;;;;;;;;;;;21.90;67.50;;;;;;10198300;28;94436;-66
2023/09/04 17:52:42;;;;;;;;;;;22.00;67.40;;;;;;10197901;28;94107;-65
2023/09/04 17:57:46;;;;;;;;;;;21.90;67.50;;;;;;10186777;28;93464;-66
2023/09/04 18:02:48;;;;;;;;;;;21.90;67.50;;;;;;10204582;28;94451;-66
2023/09/04 18:07:50;;;;;;;;;;;21.90;67.70;;;;;;10198462;28;93679;-65
2023/09/04 18:12:51;;;;;;;;;;;21.80;67.70;;;;;;10198067;28;93389;-66
2023/09/04 18:17:54;;;;;;;;;;;21.80;67.80;;;;;;10204419;28;94071;-64
2023/09/04 18:22:57;;;;;;;;;;;21.70;67.90;;;;;;10193915;28;96295;-64
2023/09/04 18:27:58;;;;;;;;;;;21.70;68.00;;;;;;10208015;28;94491;-64
2023/09/04 18:33:02;;;;;;;;;;;21.70;68.20;;;;;;10195800;28;94705;-64
2023/09/04 18:38:04;;;;;;;;;;;21.60;68.10;;;;;;10195535;28;94098;-65
2023/09/04 18:43:08;;;;;;;;;;;21.60;68.30;;;;;;10192956;28;93452;-64
2023/09/04 18:48:09;;;;;;;;;;;21.60;68.40;;;;;;10188435;28;93423;-65
2023/09/04 18:53:13;;;;;;;;;;;21.60;68.40;;;;;;10188171;28;94127;-67
2023/09/04 18:58:14;;;;;;;;;;;21.50;68.40;;;;;;10196853;28;92719;-65
2023/09/04 19:03:16;;;;;;;;;;;21.50;68.30;;;;;;10196714;28;94336;-66
2023/09/04 19:08:18;;;;;;;;;;;21.50;68.40;;;;;;10195965;28;94682;-65
2023/09/04 19:13:20;;;;;;;;;;;21.50;68.40;;;;;;10182160;28;96811;-65
2023/09/04 19:18:22;;;;;;;;;;;21.50;68.30;;;;;;10192211;28;93422;-65
2023/09/04 19:23:24;;;;;;;;;;;21.50;68.30;;;;;;10193089;28;93593;-66
2023/09/04 19:28:26;;;;;;;;;;;21.50;68.30;;;;;;10193808;28;93798;-65
2023/09/04 19:33:49;;;;;;;;;;;21.50;68.30;;;;;;10206262;28;97219;-65
2023/09/04 19:38:53;;;;;;;;;;;21.50;68.30;;;;;;10201081;28;93684;-65
2023/09/04 19:43:54;;;;;;;;;;;21.50;68.20;;;;;;10194869;28;94123;-65
2023/09/04 19:48:56;;;;;;;;;;;21.50;69.20;;;;;;10196755;28;92764;-65
2023/09/04 19:53:58;;;;;;;;;;;21.50;68.20;;;;;;10228929;28;93716;-65
2023/09/04 19:59:00;;;;;;;;;;;21.50;68.20;;;;;;10193953;28;94442;-67
2023/09/04 20:04:01;;;;;;;;;;;21.50;71.70;;;;;;10231036;28;95763;-66
2023/09/04 20:09:03;;;;;;;;;;;21.60;70.60;;;;;;10199574;28;92821;-66
2023/09/04 20:14:05;;;;;;;;;;;21.60;69.30;;;;;;10193311;28;93442;-65
2023/09/04 20:19:07;;;;;;;;;;;21.60;69.30;;;;;;10199466;28;94151;-64
2023/09/04 20:24:09;;;;;;;;;;;21.60;69.40;;;;;;10196595;28;94078;-66
2023/09/04 20:29:12;;;;;;;;;;;21.60;69.90;;;;;;10222783;28;93795;-65
2023/09/04 20:34:13;;;;;;;;;;;21.60;69.40;;;;;;10185126;28;93412;-65
2023/09/04 20:39:15;;;;;;;;;;;21.60;69.40;;;;;;10201672;28;92887;-65
2023/09/04 20:44:17;;;;;;;;;;;21.60;69.50;;;;;;10198558;28;93308;-65
2023/09/04 20:49:19;;;;;;;;;;;21.60;69.50;;;;;;10198321;28;93484;-65
2023/09/04 20:54:21;;;;;;;;;;;21.60;70.40;;;;;;10207626;28;96944;-66
2023/09/04 20:59:22;;;;;;;;;;;21.60;69.50;;;;;;10199438;28;94783;-65
2023/09/04 21:04:24;;;;;;;;;;;21.60;69.40;;;;;;10197438;28;93404;-65
2023/09/04 23:22:37;;;;;;;;;;;21.50;68.40;;;;;;10194710;28;93468;-66
2023/09/04 23:27:39;;;;;;;;;;;21.50;68.40;;;;;;10179358;28;93426;-66
2023/09/04 23:33:01;;;;;;;;;;;21.50;68.40;;;;;;10172909;28;97606;-67
2023/09/04 23:38:08;;;;;;;;;;;21.50;68.40;;;;;;10184167;28;93140;-66
2023/09/04 23:48:30;;;;;;;;;;;21.40;68.30;;;;;;10176674;28;94254;-65
2023/09/04 23:53:31;;;;;;;;;;;21.40;68.30;;;;;;10194729;28;93741;-66
2023/09/04 23:58:33;;;;;;;;;;;21.40;68.30;;;;;;10193887;28;93792;-65
